Time,TemperatureF,DewpointF,PressureIn,WindDirection,WindDirectionDegrees,WindSpeedMPH,WindSpeedGustMPH,Humidity,HourlyPrecipIn,Conditions,Clouds,dailyrainin,SoftwareType,DateUTC
2013-01-24 00:00:00,56.5,53.9,30.29,SSW,200,3.0,3.0,91,0.00,,,0.00,Wunderground v.1.15,2013-01-24 06:00:00,
2013-01-24 00:05:00,56.6,54.0,30.28,South,185,3.0,5.0,91,0.00,,,0.00,Wunderground v.1.15,2013-01-24 06:05:00,
2013-01-24 00:15:00,56.6,53.7,30.28,SSW,196,3.0,4.0,90,0.00,,,0.00,Wunderground v.1.15,2013-01-24 06:15:00,
2013-01-24 00:25:00,56.6,53.7,30.28,South,182,3.0,4.0,90,0.00,,,0.00,Wunderground v.1.15,2013-01-24 06:25:00,
2013-01-24 00:30:00,56.7,53.8,30.28,South,179,2.0,2.0,90,0.00,,,0.00,Wunderground v.1.15,2013-01-24 06:30:00,
2013-01-24 00:35:00,56.6,53.7,30.28,South,178,2.0,3.0,90,0.00,,,0.00,Wunderground v.1.15,2013-01-24 06:35:00,
2013-01-24 00:40:00,56.7,53.8,30.28,South,178,2.0,2.0,90,0.00,,,0.00,Wunderground v.1.15,2013-01-24 06:40:00,
2013-01-24 00:45:00,56.7,53.8,30.28,South,181,2.0,2.0,90,0.00,,,0.00,Wunderground v.1.15,2013-01-24 06:45:00,
2013-01-24 00:55:00,56.6,53.7,30.28,South,180,2.0,3.0,90,0.00,,,0.00,Wunderground v.1.15,2013-01-24 06:55:00,
2013-01-24 01:00:00,56.5,53.6,30.28,SSE,162,2.0,2.0,90,0.00,,,0.00,Wunderground v.1.15,2013-01-24 07:00:00,
2013-01-24 01:05:00,56.5,53.6,30.28,South,180,2.0,9.0,90,0.00,,,0.00,Wunderground v.1.15,2013-01-24 07:05:00,
2013-01-24 01:10:00,56.5,53.6,30.28,South,176,2.0,9.0,90,0.00,,,0.00,Wunderground v.1.15,2013-01-24 07:10:00,
2013-01-24 01:15:00,56.6,53.7,30.28,South,189,3.0,9.0,90,0.00,,,0.00,Wunderground v.1.15,2013-01-24 07:15:00,
2013-01-24 01:20:00,56.7,53.8,30.28,SSW,192,3.0,9.0,90,0.00,,,0.00,Wunderground v.1.15,2013-01-24 07:20:00,
2013-01-24 01:30:00,56.6,53.7,30.27,SSW,203,2.0,9.0,90,0.00,,,0.00,Wunderground v.1.15,2013-01-24 07:30:00,
2013-01-24 01:35:00,56.6,53.7,30.28,SSW,201,2.0,9.0,90,0.00,,,0.00,Wunderground v.1.15,2013-01-24 07:35:00,
2013-01-24 01:40:00,56.6,53.7,30.28,SSW,206,2.0,9.0,90,0.00,,,0.00,Wunderground v.1.15,2013-01-24 07:40:00,
2013-01-24 01:45:00,56.6,53.7,30.28,South,186,2.0,9.0,90,0.00,,,0.00,Wunderground v.1.15,2013-01-24 07:45:00,
2013-01-24 01:50:00,56.7,53.8,30.28,South,184,2.0,9.0,90,0.00,,,0.00,Wunderground v.1.15,2013-01-24 07:50:00,
2013-01-24 02:00:00,56.7,53.8,30.28,SSW,205,2.0,9.0,90,0.00,,,0.00,Wunderground v.1.15,2013-01-24 08:00:00,
2013-01-24 02:05:00,56.8,53.6,30.27,SSW,212,2.0,9.0,89,0.00,,,0.00,Wunderground v.1.15,2013-01-24 08:05:00,
2013-01-24 02:10:00,56.7,53.8,30.27,South,178,2.0,9.0,90,0.00,,,0.00,Wunderground v.1.15,2013-01-24 08:10:00,
2013-01-24 02:15:00,56.7,53.8,30.28,SW,214,2.0,9.0,90,0.00,,,0.00,Wunderground v.1.15,2013-01-24 08:15:00,
2013-01-24 02:20:00,56.6,53.7,30.27,SW,219,1.0,9.0,90,0.00,,,0.00,Wunderground v.1.15,2013-01-24 08:20:00,
2013-01-24 02:25:00,56.6,53.7,30.27,SSW,207,2.0,9.0,90,0.00,,,0.00,Wunderground v.1.15,2013-01-24 08:25:00,
2013-01-24 02:35:00,56.6,53.7,30.27,SSW,213,2.0,9.0,90,0.00,,,0.00,Wunderground v.1.15,2013-01-24 08:35:00,
2013-01-24 02:40:00,56.6,53.7,30.27,South,171,2.0,9.0,90,0.00,,,0.00,Wunderground v.1.15,2013-01-24 08:40:00,
2013-01-24 02:45:00,56.6,53.7,30.27,South,179,2.0,9.0,90,0.00,,,0.00,Wunderground v.1.15,2013-01-24 08:45:00,
2013-01-24 02:50:00,56.5,53.9,30.27,SW,219,2.0,9.0,91,0.00,,,0.00,Wunderground v.1.15,2013-01-24 08:50:00,
2013-01-24 02:55:00,56.4,53.8,30.27,SSE,153,1.0,9.0,91,0.00,,,0.00,Wunderground v.1.15,2013-01-24 08:55:00,
2013-01-24 03:00:00,56.5,53.9,30.27,SSE,165,1.0,9.0,91,0.00,,,0.00,Wunderground v.1.15,2013-01-24 09:00:00,
2013-01-24 03:05:00,56.5,53.9,30.27,SSW,197,2.0,9.0,91,0.00,,,0.00,Wunderground v.1.15,2013-01-24 09:05:00,
2013-01-24 03:15:00,56.3,53.7,30.27,South,181,2.0,9.0,91,0.00,,,0.00,Wunderground v.1.15,2013-01-24 09:15:00,
2013-01-24 03:20:00,55.9,53.3,30.27,SW,214,1.0,9.0,91,0.00,,,0.00,Wunderground v.1.15,2013-01-24 09:20:00,
2013-01-24 03:25:00,55.7,53.4,30.27,SSW,198,1.0,9.0,92,0.00,,,0.00,Wunderground v.1.15,2013-01-24 09:25:00,
2013-01-24 03:30:00,55.6,53.3,30.26,SSW,199,1.0,1.0,92,0.00,,,0.00,Wunderground v.1.15,2013-01-24 09:30:00,
2013-01-24 03:35:00,55.6,53.3,30.26,SSW,212,1.0,9.0,92,0.00,,,0.00,Wunderground v.1.15,2013-01-24 09:35:00,
2013-01-24 03:40:00,55.3,53.0,30.26,SSW,210,1.0,1.0,92,0.00,,,0.00,Wunderground v.1.15,2013-01-24 09:40:00,
2013-01-24 03:45:00,55.1,53.1,30.27,SSW,211,0.0,9.0,93,0.00,,,0.00,Wunderground v.1.15,2013-01-24 09:45:00,
2013-01-24 03:50:00,55.0,53.0,30.27,SE,141,0.0,9.0,93,0.00,,,0.00,Wunderground v.1.15,2013-01-24 09:50:00,
2013-01-24 03:55:00,54.9,52.9,30.27,SE,141,0.0,9.0,93,0.00,,,0.00,Wunderground v.1.15,2013-01-24 09:55:00,
2013-01-24 04:00:00,54.7,53.0,30.27,SSW,197,0.0,9.0,94,0.00,,,0.00,Wunderground v.1.15,2013-01-24 10:00:00,
2013-01-24 04:10:00,54.6,52.9,30.27,SW,221,0.0,9.0,94,0.00,,,0.00,Wunderground v.1.15,2013-01-24 10:10:00,
2013-01-24 04:15:00,54.5,52.8,30.27,South,188,0.0,9.0,94,0.00,,,0.00,Wunderground v.1.15,2013-01-24 10:15:00,
2013-01-24 04:20:00,54.5,53.1,30.27,South,179,0.0,9.0,95,0.00,,,0.00,Wunderground v.1.15,2013-01-24 10:20:00,
2013-01-24 04:25:00,54.4,52.7,30.27,SSW,212,1.0,9.0,94,0.00,,,0.00,Wunderground v.1.15,2013-01-24 10:25:00,
2013-01-24 04:30:00,54.6,53.2,30.27,SSE,152,1.0,9.0,95,0.00,,,0.00,Wunderground v.1.15,2013-01-24 10:30:00,
2013-01-24 04:40:00,54.6,53.2,30.27,SE,141,1.0,1.0,95,0.00,,,0.00,Wunderground v.1.15,2013-01-24 10:40:00,
2013-01-24 04:45:00,54.6,53.2,30.27,South,176,1.0,9.0,95,0.00,,,0.00,Wunderground v.1.15,2013-01-24 10:45:00,
2013-01-24 04:50:00,54.7,53.3,30.27,SE,146,1.0,1.0,95,0.00,,,0.00,Wunderground v.1.15,2013-01-24 10:50:00,
2013-01-24 04:55:00,54.7,53.3,30.28,SE,141,0.0,9.0,95,0.00,,,0.00,Wunderground v.1.15,2013-01-24 10:55:00,
2013-01-24 05:00:00,54.9,53.5,30.28,ESE,117,0.0,9.0,95,0.00,,,0.00,Wunderground v.1.15,2013-01-24 11:00:00,
2013-01-24 05:05:00,54.9,53.5,30.28,SE,124,0.0,9.0,95,0.00,,,0.00,Wunderground v.1.15,2013-01-24 11:05:00,
2013-01-24 05:15:00,54.7,53.3,30.28,ESE,115,0.0,9.0,95,0.00,,,0.00,Wunderground v.1.15,2013-01-24 11:15:00,
2013-01-24 05:20:00,54.7,53.6,30.28,ESE,115,0.0,9.0,96,0.00,,,0.00,Wunderground v.1.15,2013-01-24 11:20:00,
2013-01-24 05:25:00,54.8,53.7,30.28,ESE,115,0.0,9.0,96,0.00,,,0.00,Wunderground v.1.15,2013-01-24 11:25:00,
2013-01-24 05:30:00,55.0,53.9,30.29,ESE,115,0.0,9.0,96,0.00,,,0.00,Wunderground v.1.15,2013-01-24 11:30:00,
2013-01-24 05:35:00,55.1,54.0,30.29,ESE,115,0.0,9.0,96,0.00,,,0.00,Wunderground v.1.15,2013-01-24 11:35:00,
2013-01-24 05:45:00,55.1,54.0,30.29,ESE,115,0.0,9.0,96,0.00,,,0.00,Wunderground v.1.15,2013-01-24 11:45:00,
2013-01-24 05:50:00,55.2,54.1,30.29,ESE,115,0.0,9.0,96,0.00,,,0.00,Wunderground v.1.15,2013-01-24 11:50:00,
2013-01-24 05:55:00,55.3,54.2,30.29,ESE,115,0.0,9.0,96,0.00,,,0.00,Wunderground v.1.15,2013-01-24 11:55:00,
2013-01-24 06:00:00,55.3,53.9,30.30,ESE,115,0.0,9.0,95,0.00,,,0.00,Wunderground v.1.15,2013-01-24 12:00:00,
2013-01-24 06:05:00,55.3,54.2,30.30,ESE,115,0.0,9.0,96,0.00,,,0.00,Wunderground v.1.15,2013-01-24 12:05:00,
2013-01-24 06:10:00,55.4,54.0,30.30,East,96,1.0,1.0,95,0.00,,,0.00,Wunderground v.1.15,2013-01-24 12:10:00,
2013-01-24 06:20:00,55.1,53.7,30.30,East,96,0.0,9.0,95,0.00,,,0.00,Wunderground v.1.15,2013-01-24 12:20:00,
2013-01-24 06:25:00,55.2,54.1,30.30,East,96,0.0,9.0,96,0.00,,,0.00,Wunderground v.1.15,2013-01-24 12:25:00,
2013-01-24 06:30:00,55.3,54.2,30.30,East,96,0.0,9.0,96,0.00,,,0.00,Wunderground v.1.15,2013-01-24 12:30:00,
2013-01-24 06:35:00,55.6,54.5,30.30,East,96,0.0,9.0,96,0.00,,,0.00,Wunderground v.1.15,2013-01-24 12:35:00,
2013-01-24 06:40:00,55.8,54.4,30.30,East,98,1.0,1.0,95,0.00,,,0.00,Wunderground v.1.15,2013-01-24 12:40:00,
2013-01-24 06:50:00,54.6,52.6,30.31,SSE,153,0.0,9.0,93,0.00,,,0.00,Wunderground v.1.15,2013-01-24 12:50:00,
2013-01-24 06:55:00,54.4,53.3,30.31,SSE,153,0.0,9.0,96,0.00,,,0.00,Wunderground v.1.15,2013-01-24 12:55:00,
2013-01-24 07:00:00,54.6,53.5,30.31,SSE,153,0.0,9.0,96,0.00,,,0.00,Wunderground v.1.15,2013-01-24 13:00:00,
2013-01-24 07:05:00,54.7,53.6,30.31,SSE,153,0.0,9.0,96,0.00,,,0.00,Wunderground v.1.15,2013-01-24 13:05:00,
2013-01-24 07:10:00,54.8,53.4,30.31,East,98,0.0,9.0,95,0.00,,,0.00,Wunderground v.1.15,2013-01-24 13:10:00,
2013-01-24 07:15:00,53.9,52.2,30.31,East,79,2.0,9.0,94,0.00,,,0.00,Wunderground v.1.15,2013-01-24 13:15:00,
2013-01-24 07:25:00,53.3,52.2,30.30,SE,124,1.0,9.0,96,0.00,,,0.00,Wunderground v.1.15,2013-01-24 13:25:00,
2013-01-24 07:30:00,53.3,52.2,30.30,SE,124,0.0,9.0,96,0.00,,,0.00,Wunderground v.1.15,2013-01-24 13:30:00,
2013-01-24 07:35:00,53.2,52.1,30.30,SE,124,0.0,9.0,96,0.00,,,0.00,Wunderground v.1.15,2013-01-24 13:35:00,
2013-01-24 07:40:00,53.8,53.0,30.31,ENE,74,1.0,9.0,97,0.00,,,0.00,Wunderground v.1.15,2013-01-24 13:40:00,
2013-01-24 07:45:00,54.3,53.5,30.31,East,95,1.0,9.0,97,0.00,,,0.00,Wunderground v.1.15,2013-01-24 13:45:00,
2013-01-24 07:55:00,54.7,53.9,30.30,East,96,0.0,9.0,97,0.00,,,0.00,Wunderground v.1.15,2013-01-24 13:55:00,
2013-01-24 08:00:00,54.9,53.8,30.31,East,96,0.0,9.0,96,0.00,,,0.00,Wunderground v.1.15,2013-01-24 14:00:00,
2013-01-24 08:05:00,55.1,54.0,30.31,East,89,1.0,9.0,96,0.00,,,0.00,Wunderground v.1.15,2013-01-24 14:05:00,
2013-01-24 08:10:00,55.4,54.3,30.31,East,89,1.0,1.0,96,0.00,,,0.00,Wunderground v.1.15,2013-01-24 14:10:00,
2013-01-24 08:15:00,55.0,53.3,30.31,East,92,0.0,9.0,94,0.00,,,0.00,Wunderground v.1.15,2013-01-24 14:15:00,
2013-01-24 08:20:00,55.1,53.7,30.31,SSE,151,0.0,9.0,95,0.00,,,0.00,Wunderground v.1.15,2013-01-24 14:20:00,
2013-01-24 08:25:00,55.3,54.2,30.31,SSE,152,0.0,9.0,96,0.00,,,0.00,Wunderground v.1.15,2013-01-24 14:25:00,
2013-01-24 08:30:00,56.0,54.9,30.31,SSE,151,0.0,9.0,96,0.00,,,0.00,Wunderground v.1.15,2013-01-24 14:30:00,
2013-01-24 08:35:00,56.7,55.3,30.32,SSE,151,0.0,9.0,95,0.00,,,0.00,Wunderground v.1.15,2013-01-24 14:35:00,
2013-01-24 08:40:00,57.6,56.5,30.32,South,172,0.0,9.0,96,0.00,,,0.00,Wunderground v.1.15,2013-01-24 14:40:00,
2013-01-24 08:45:00,58.6,56.9,30.32,South,173,0.0,9.0,94,0.00,,,0.00,Wunderground v.1.15,2013-01-24 14:45:00,
2013-01-24 08:55:00,59.3,57.0,30.32,SSE,162,0.0,9.0,92,0.00,,,0.00,Wunderground v.1.15,2013-01-24 14:55:00,
2013-01-24 09:00:00,59.8,57.5,30.32,SE,146,1.0,9.0,92,0.00,,,0.00,Wunderground v.1.15,2013-01-24 15:00:00,
2013-01-24 09:05:00,60.3,58.0,30.32,SSE,156,1.0,9.0,92,0.00,,,0.00,Wunderground v.1.15,2013-01-24 15:05:00,
2013-01-24 09:10:00,61.0,58.7,30.32,SW,219,1.0,9.0,92,0.00,,,0.00,Wunderground v.1.15,2013-01-24 15:10:00,
2013-01-24 09:15:00,62.5,59.2,30.33,SW,220,1.0,9.0,89,0.00,,,0.00,Wunderground v.1.15,2013-01-24 15:15:00,
2013-01-24 09:20:00,63.9,60.0,30.33,SW,221,2.0,9.0,87,0.00,,,0.00,Wunderground v.1.15,2013-01-24 15:20:00,
2013-01-24 09:30:00,65.4,60.8,30.32,SSW,205,3.0,9.0,85,0.00,,,0.00,Wunderground v.1.15,2013-01-24 15:30:00,
2013-01-24 09:35:00,66.0,60.3,30.33,WSW,255,4.0,9.0,82,0.00,,,0.00,Wunderground v.1.15,2013-01-24 15:35:00,
2013-01-24 09:40:00,65.8,60.2,30.33,West,262,4.0,4.0,82,0.00,,,0.00,Wunderground v.1.15,2013-01-24 15:40:00,
2013-01-24 09:45:00,66.0,60.0,30.32,SW,236,4.0,5.0,81,0.00,,,0.00,Wunderground v.1.15,2013-01-24 15:45:00,
2013-01-24 09:50:00,66.0,60.0,30.33,SW,224,5.0,5.0,81,0.00,,,0.00,Wunderground v.1.15,2013-01-24 15:50:00,
2013-01-24 09:55:00,66.3,59.9,30.33,WSW,249,5.0,8.0,80,0.00,,,0.00,Wunderground v.1.15,2013-01-24 15:55:00,
2013-01-24 10:05:00,67.7,60.6,30.33,SW,223,6.0,9.0,78,0.00,,,0.00,Wunderground v.1.15,2013-01-24 16:05:00,
2013-01-24 10:10:00,67.9,60.1,30.32,SW,220,6.0,9.0,76,0.00,,,0.00,Wunderground v.1.15,2013-01-24 16:10:00,
2013-01-24 10:15:00,68.1,60.2,30.32,SW,225,7.0,10.0,76,0.00,,,0.00,Wunderground v.1.15,2013-01-24 16:15:00,
2013-01-24 10:20:00,68.2,60.0,30.33,WSW,254,7.0,9.0,75,0.00,,,0.00,Wunderground v.1.15,2013-01-24 16:20:00,
2013-01-24 10:25:00,68.3,60.1,30.33,WSW,245,7.0,9.0,75,0.00,,,0.00,Wunderground v.1.15,2013-01-24 16:25:00,
2013-01-24 10:35:00,68.3,60.4,30.33,West,278,7.0,9.0,76,0.00,,,0.00,Wunderground v.1.15,2013-01-24 16:35:00,
2013-01-24 10:40:00,68.5,60.6,30.33,SW,231,6.0,6.0,76,0.00,,,0.00,Wunderground v.1.15,2013-01-24 16:40:00,
2013-01-24 10:45:00,69.0,60.4,30.32,West,263,5.0,9.0,74,0.00,,,0.00,Wunderground v.1.15,2013-01-24 16:45:00,
2013-01-24 10:50:00,69.8,60.8,30.32,WSW,243,5.0,9.0,73,0.00,,,0.00,Wunderground v.1.15,2013-01-24 16:50:00,
2013-01-24 10:55:00,69.9,60.5,30.32,WSW,245,7.0,9.0,72,0.00,,,0.00,Wunderground v.1.15,2013-01-24 16:55:00,
2013-01-24 11:00:00,69.9,60.5,30.32,WSW,239,8.0,10.0,72,0.00,,,0.00,Wunderground v.1.15,2013-01-24 17:00:00,
2013-01-24 11:10:00,70.5,60.6,30.32,SW,229,8.0,8.0,71,0.00,,,0.00,Wunderground v.1.15,2013-01-24 17:10:00,
2013-01-24 11:15:00,70.3,60.4,30.32,WSW,240,8.0,9.0,71,0.00,,,0.00,Wunderground v.1.15,2013-01-24 17:15:00,
2013-01-24 11:20:00,70.1,60.7,30.31,SW,231,8.0,8.0,72,0.00,,,0.00,Wunderground v.1.15,2013-01-24 17:20:00,
2013-01-24 11:25:00,69.8,60.8,30.31,SW,226,7.0,9.0,73,0.00,,,0.00,Wunderground v.1.15,2013-01-24 17:25:00,
2013-01-24 11:30:00,70.2,60.7,30.31,SW,214,8.0,8.0,72,0.00,,,0.00,Wunderground v.1.15,2013-01-24 17:30:00,
2013-01-24 11:40:00,70.9,61.0,30.30,West,276,6.0,6.0,71,0.00,,,0.00,Wunderground v.1.15,2013-01-24 17:40:00,
2013-01-24 11:45:00,71.4,61.1,30.30,SW,229,6.0,9.0,70,0.00,,,0.00,Wunderground v.1.15,2013-01-24 17:45:00,
2013-01-24 11:50:00,71.0,61.1,30.30,SW,227,6.0,6.0,71,0.00,,,0.00,Wunderground v.1.15,2013-01-24 17:50:00,
2013-01-24 11:55:00,70.9,61.0,30.29,WSW,240,6.0,8.0,71,0.00,,,0.00,Wunderground v.1.15,2013-01-24 17:55:00,
2013-01-24 12:00:00,70.5,60.6,30.29,WSW,257,8.0,8.0,71,0.00,,,0.00,Wunderground v.1.15,2013-01-24 18:00:00,
2013-01-24 12:05:00,70.4,60.9,30.29,West,260,8.0,9.0,72,0.00,,,0.00,Wunderground v.1.15,2013-01-24 18:05:00,
2013-01-24 12:10:00,71.1,61.2,30.28,WSW,257,6.0,6.0,71,0.00,,,0.00,Wunderground v.1.15,2013-01-24 18:10:00,
2013-01-24 12:15:00,71.7,61.4,30.28,South,172,5.0,9.0,70,0.00,,,0.00,Wunderground v.1.15,2013-01-24 18:15:00,
2013-01-24 12:20:00,71.9,61.2,30.28,SW,233,6.0,9.0,69,0.00,,,0.00,Wunderground v.1.15,2013-01-24 18:20:00,
2013-01-24 12:25:00,72.4,61.2,30.27,WSW,241,6.0,9.0,68,0.00,,,0.00,Wunderground v.1.15,2013-01-24 18:25:00,
2013-01-24 12:35:00,71.8,61.1,30.27,WSW,237,7.0,9.0,69,0.00,,,0.00,Wunderground v.1.15,2013-01-24 18:35:00,
2013-01-24 12:40:00,71.6,60.9,30.26,West,267,6.0,9.0,69,0.00,,,0.00,Wunderground v.1.15,2013-01-24 18:40:00,
2013-01-24 12:45:00,71.7,61.0,30.26,WSW,251,6.0,9.0,69,0.00,,,0.00,Wunderground v.1.15,2013-01-24 18:45:00,
2013-01-24 12:50:00,72.2,61.5,30.26,SW,229,6.0,6.0,69,0.00,,,0.00,Wunderground v.1.15,2013-01-24 18:50:00,
2013-01-24 12:55:00,72.0,60.9,30.26,SW,229,7.0,8.0,68,0.00,,,0.00,Wunderground v.1.15,2013-01-24 18:55:00,
2013-01-24 13:00:00,71.8,61.1,30.26,SW,222,8.0,9.0,69,0.00,,,0.00,Wunderground v.1.15,2013-01-24 19:00:00,
2013-01-24 13:10:00,71.8,61.1,30.26,SW,232,7.0,9.0,69,0.00,,,0.00,Wunderground v.1.15,2013-01-24 19:10:00,
2013-01-24 13:20:00,72.5,61.3,30.25,SW,236,7.0,7.0,68,0.00,,,0.00,Wunderground v.1.15,2013-01-24 19:20:00,
2013-01-24 13:25:00,73.3,61.3,30.25,South,184,6.0,9.0,66,0.00,,,0.00,Wunderground v.1.15,2013-01-24 19:25:00,
2013-01-24 13:30:00,73.4,61.3,30.24,SW,219,7.0,11.0,66,0.00,,,0.00,Wunderground v.1.15,2013-01-24 19:30:00,
2013-01-24 13:35:00,73.0,61.0,30.24,WSW,257,8.0,11.0,66,0.00,,,0.00,Wunderground v.1.15,2013-01-24 19:35:00,
2013-01-24 13:40:00,72.7,61.5,30.24,WSW,249,7.0,7.0,68,0.00,,,0.00,Wunderground v.1.15,2013-01-24 19:40:00,
2013-01-24 13:45:00,73.3,61.7,30.24,SSW,207,6.0,9.0,67,0.00,,,0.00,Wunderground v.1.15,2013-01-24 19:45:00,
2013-01-24 13:50:00,73.0,61.4,30.23,WSW,245,7.0,9.0,67,0.00,,,0.00,Wunderground v.1.15,2013-01-24 19:50:00,
2013-01-24 13:55:00,73.1,61.9,30.23,SW,231,7.0,10.0,68,0.00,,,0.00,Wunderground v.1.15,2013-01-24 19:55:00,
2013-01-24 14:00:00,72.8,61.6,30.23,SW,234,7.0,9.0,68,0.00,,,0.00,Wunderground v.1.15,2013-01-24 20:00:00,
2013-01-24 14:05:00,72.1,61.4,30.23,West,266,8.0,9.0,69,0.00,,,0.00,Wunderground v.1.15,2013-01-24 20:05:00,
2013-01-24 14:10:00,72.0,61.7,30.23,WSW,238,9.0,9.0,70,0.00,,,0.00,Wunderground v.1.15,2013-01-24 20:10:00,
2013-01-24 14:15:00,72.1,61.8,30.23,SW,222,9.0,9.0,70,0.00,,,0.00,Wunderground v.1.15,2013-01-24 20:15:00,
2013-01-24 14:20:00,72.3,61.6,30.23,West,262,7.0,10.0,69,0.00,,,0.00,Wunderground v.1.15,2013-01-24 20:20:00,
2013-01-24 14:25:00,72.2,61.5,30.22,SW,225,6.0,10.0,69,0.00,,,0.00,Wunderground v.1.15,2013-01-24 20:25:00,
2013-01-24 14:30:00,71.9,62.0,30.22,SW,233,6.0,9.0,71,0.00,,,0.00,Wunderground v.1.15,2013-01-24 20:30:00,
2013-01-24 14:35:00,71.8,61.5,30.22,WSW,243,6.0,9.0,70,0.00,,,0.00,Wunderground v.1.15,2013-01-24 20:35:00,
2013-01-24 14:40:00,71.6,61.7,30.22,SSW,210,6.0,6.0,71,0.00,,,0.00,Wunderground v.1.15,2013-01-24 20:40:00,
2013-01-24 14:45:00,71.5,62.0,30.21,SW,219,6.0,9.0,72,0.00,,,0.00,Wunderground v.1.15,2013-01-24 20:45:00,
2013-01-24 14:55:00,71.3,61.4,30.21,WSW,238,7.0,7.0,71,0.00,,,0.00,Wunderground v.1.15,2013-01-24 20:55:00,
2013-01-24 15:00:00,71.2,61.3,30.21,SW,231,8.0,8.0,71,0.00,,,0.00,Wunderground v.1.15,2013-01-24 21:00:00,
2013-01-24 15:05:00,72.0,61.7,30.21,SW,220,7.0,10.0,70,0.00,,,0.00,Wunderground v.1.15,2013-01-24 21:05:00,
2013-01-24 15:10:00,72.3,61.6,30.21,SW,218,7.0,9.0,69,0.00,,,0.00,Wunderground v.1.15,2013-01-24 21:10:00,
2013-01-24 15:15:00,72.2,61.5,30.21,SW,219,8.0,9.0,69,0.00,,,0.00,Wunderground v.1.15,2013-01-24 21:15:00,
2013-01-24 15:25:00,72.0,62.1,30.21,WSW,248,8.0,13.0,71,0.00,,,0.00,Wunderground v.1.15,2013-01-24 21:25:00,
2013-01-24 15:30:00,72.4,61.7,30.21,WSW,238,9.0,11.0,69,0.00,,,0.00,Wunderground v.1.15,2013-01-24 21:30:00,
2013-01-24 15:35:00,72.9,61.7,30.21,SW,226,9.0,11.0,68,0.00,,,0.00,Wunderground v.1.15,2013-01-24 21:35:00,
2013-01-24 15:40:00,72.3,61.1,30.22,WSW,244,7.0,9.0,68,0.00,,,0.00,Wunderground v.1.15,2013-01-24 21:40:00,
2013-01-24 15:45:00,71.6,61.3,30.22,WSW,256,8.0,9.0,70,0.00,,,0.00,Wunderground v.1.15,2013-01-24 21:45:00,
2013-01-24 15:50:00,71.4,61.5,30.21,SW,222,7.0,7.0,71,0.00,,,0.00,Wunderground v.1.15,2013-01-24 21:50:00,
2013-01-24 16:00:00,71.2,61.3,30.21,SW,231,6.0,9.0,71,0.00,,,0.00,Wunderground v.1.15,2013-01-24 22:00:00,
2013-01-24 16:05:00,71.5,61.6,30.22,SSW,192,6.0,9.0,71,0.00,,,0.00,Wunderground v.1.15,2013-01-24 22:05:00,
2013-01-24 16:10:00,71.7,61.4,30.22,West,263,6.0,9.0,70,0.00,,,0.00,Wunderground v.1.15,2013-01-24 22:10:00,
2013-01-24 16:15:00,71.5,61.6,30.21,SW,233,6.0,9.0,71,0.00,,,0.00,Wunderground v.1.15,2013-01-24 22:15:00,
2013-01-24 16:20:00,71.0,61.1,30.21,SW,217,7.0,9.0,71,0.00,,,0.00,Wunderground v.1.15,2013-01-24 22:20:00,
2013-01-24 16:30:00,70.5,61.0,30.21,SW,217,7.0,10.0,72,0.00,,,0.00,Wunderground v.1.15,2013-01-24 22:30:00,
2013-01-24 16:35:00,70.2,61.1,30.21,SW,214,6.0,10.0,73,0.00,,,0.00,Wunderground v.1.15,2013-01-24 22:35:00,
2013-01-24 16:40:00,70.0,61.7,30.21,SW,214,6.0,6.0,75,0.00,,,0.00,Wunderground v.1.15,2013-01-24 22:40:00,
2013-01-24 16:45:00,69.7,61.4,30.21,SW,224,5.0,9.0,75,0.00,,,0.00,Wunderground v.1.15,2013-01-24 22:45:00,
2013-01-24 16:50:00,69.6,61.3,30.21,SSW,211,5.0,5.0,75,0.00,,,0.00,Wunderground v.1.15,2013-01-24 22:50:00,
2013-01-24 16:55:00,69.6,61.3,30.21,SW,217,5.0,7.0,75,0.00,,,0.00,Wunderground v.1.15,2013-01-24 22:55:00,
2013-01-24 17:05:00,69.6,61.3,30.21,SSW,200,6.0,9.0,75,0.00,,,0.00,Wunderground v.1.15,2013-01-24 23:05:00,
2013-01-24 17:10:00,69.3,61.0,30.21,SW,229,6.0,9.0,75,0.00,,,0.00,Wunderground v.1.15,2013-01-24 23:10:00,
2013-01-24 17:15:00,68.9,61.0,30.21,SW,233,6.0,9.0,76,0.00,,,0.00,Wunderground v.1.15,2013-01-24 23:15:00,
2013-01-24 17:20:00,68.5,60.6,30.21,SW,215,5.0,5.0,76,0.00,,,0.00,Wunderground v.1.15,2013-01-24 23:20:00,
2013-01-24 17:25:00,68.1,60.6,30.21,SW,231,4.0,9.0,77,0.00,,,0.00,Wunderground v.1.15,2013-01-24 23:25:00,
2013-01-24 17:35:00,67.4,60.3,30.21,South,186,4.0,9.0,78,0.00,,,0.00,Wunderground v.1.15,2013-01-24 23:35:00,
2013-01-24 17:40:00,67.1,60.4,30.21,SSW,200,4.0,4.0,79,0.00,,,0.00,Wunderground v.1.15,2013-01-24 23:40:00,
2013-01-24 17:45:00,67.0,60.3,30.22,SSW,207,4.0,9.0,79,0.00,,,0.00,Wunderground v.1.15,2013-01-24 23:45:00,
2013-01-24 17:50:00,66.7,60.0,30.22,SW,214,3.0,3.0,79,0.00,,,0.00,Wunderground v.1.15,2013-01-24 23:50:00,
2013-01-24 17:55:00,66.5,60.1,30.22,SSW,207,3.0,9.0,80,0.00,,,0.00,Wunderground v.1.15,2013-01-24 23:55:00,
2013-01-24 18:00:00,66.3,59.9,30.22,SW,219,3.0,3.0,80,0.00,,,0.00,Wunderground v.1.15,2013-01-25 00:00:00,
2013-01-24 18:10:00,65.9,59.9,30.22,South,186,3.0,9.0,81,0.00,,,0.00,Wunderground v.1.15,2013-01-25 00:10:00,
2013-01-24 18:15:00,65.8,59.8,30.22,SSW,202,3.0,9.0,81,0.00,,,0.00,Wunderground v.1.15,2013-01-25 00:15:00,
2013-01-24 18:20:00,65.6,60.0,30.23,SW,229,3.0,9.0,82,0.00,,,0.00,Wunderground v.1.15,2013-01-25 00:20:00,
2013-01-24 18:25:00,65.6,60.0,30.23,SW,219,3.0,9.0,82,0.00,,,0.00,Wunderground v.1.15,2013-01-25 00:25:00,
2013-01-24 18:30:00,65.6,60.0,30.23,SW,217,3.0,9.0,82,0.00,,,0.00,Wunderground v.1.15,2013-01-25 00:30:00,
2013-01-24 18:35:00,65.6,59.6,30.23,SSW,210,4.0,9.0,81,0.00,,,0.00,Wunderground v.1.15,2013-01-25 00:35:00,
2013-01-24 18:40:00,65.6,59.6,30.23,SW,229,4.0,4.0,81,0.00,,,0.00,Wunderground v.1.15,2013-01-25 00:40:00,
2013-01-24 18:45:00,65.3,59.3,30.24,SW,214,3.0,9.0,81,0.00,,,0.00,Wunderground v.1.15,2013-01-25 00:45:00,
2013-01-24 18:50:00,65.1,59.5,30.23,SW,232,3.0,9.0,82,0.00,,,0.00,Wunderground v.1.15,2013-01-25 00:50:00,
2013-01-24 18:55:00,65.0,59.4,30.24,SSW,210,3.0,9.0,82,0.00,,,0.00,Wunderground v.1.15,2013-01-25 00:55:00,
2013-01-24 19:00:00,64.9,59.3,30.24,SW,225,3.0,9.0,82,0.00,,,0.00,Wunderground v.1.15,2013-01-25 01:00:00,
2013-01-24 19:10:00,64.9,58.9,30.24,SW,225,4.0,9.0,81,0.00,,,0.00,Wunderground v.1.15,2013-01-25 01:10:00,
2013-01-24 19:15:00,64.8,59.2,30.24,SW,220,4.0,9.0,82,0.00,,,0.00,Wunderground v.1.15,2013-01-25 01:15:00,
2013-01-24 19:20:00,64.6,59.0,30.24,SW,236,3.0,9.0,82,0.00,,,0.00,Wunderground v.1.15,2013-01-25 01:20:00,
2013-01-24 19:25:00,64.5,58.9,30.24,West,262,3.0,9.0,82,0.00,,,0.00,Wunderground v.1.15,2013-01-25 01:25:00,
2013-01-24 19:30:00,64.4,58.8,30.24,SW,223,3.0,3.0,82,0.00,,,0.00,Wunderground v.1.15,2013-01-25 01:30:00,
2013-01-24 19:35:00,64.1,58.8,30.24,SSW,210,3.0,9.0,83,0.00,,,0.00,Wunderground v.1.15,2013-01-25 01:35:00,
2013-01-24 19:45:00,63.8,58.9,30.24,SSW,207,3.0,9.0,84,0.00,,,0.00,Wunderground v.1.15,2013-01-25 01:45:00,
2013-01-24 19:50:00,63.7,58.8,30.24,South,172,3.0,9.0,84,0.00,,,0.00,Wunderground v.1.15,2013-01-25 01:50:00,
2013-01-24 19:55:00,63.6,58.7,30.24,South,183,2.0,9.0,84,0.00,,,0.00,Wunderground v.1.15,2013-01-25 01:55:00,
2013-01-24 20:00:00,63.5,58.6,30.24,SW,218,2.0,9.0,84,0.00,,,0.00,Wunderground v.1.15,2013-01-25 02:00:00,
2013-01-24 20:05:00,63.4,58.8,30.24,South,179,3.0,9.0,85,0.00,,,0.00,Wunderground v.1.15,2013-01-25 02:05:00,
2013-01-24 20:15:00,63.3,58.7,30.24,SE,142,4.0,9.0,85,0.00,,,0.00,Wunderground v.1.15,2013-01-25 02:15:00,
2013-01-24 20:20:00,62.9,58.6,30.24,South,170,3.0,3.0,86,0.00,,,0.00,Wunderground v.1.15,2013-01-25 02:20:00,
2013-01-24 20:25:00,62.8,58.5,30.23,SSE,156,2.0,9.0,86,0.00,,,0.00,Wunderground v.1.15,2013-01-25 02:25:00,
2013-01-24 20:30:00,62.6,58.7,30.24,South,178,3.0,9.0,87,0.00,,,0.00,Wunderground v.1.15,2013-01-25 02:30:00,
2013-01-24 20:35:00,62.6,58.7,30.23,South,181,4.0,9.0,87,0.00,,,0.00,Wunderground v.1.15,2013-01-25 02:35:00,
2013-01-24 20:40:00,62.6,58.7,30.24,South,176,4.0,4.0,87,0.00,,,0.00,Wunderground v.1.15,2013-01-25 02:40:00,
2013-01-24 20:50:00,62.6,58.4,30.23,South,191,4.0,9.0,86,0.00,,,0.00,Wunderground v.1.15,2013-01-25 02:50:00,
2013-01-24 20:55:00,62.6,58.7,30.23,South,191,5.0,9.0,87,0.00,,,0.00,Wunderground v.1.15,2013-01-25 02:55:00,
2013-01-24 21:00:00,62.5,58.6,30.23,SSW,192,5.0,9.0,87,0.00,,,0.00,Wunderground v.1.15,2013-01-25 03:00:00,
2013-01-24 21:05:00,62.4,58.5,30.23,SSW,197,5.0,9.0,87,0.00,,,0.00,Wunderground v.1.15,2013-01-25 03:05:00,
2013-01-24 21:10:00,62.3,58.4,30.23,SSW,195,5.0,9.0,87,0.00,,,0.00,Wunderground v.1.15,2013-01-25 03:10:00,
2013-01-24 21:20:00,62.2,58.3,30.23,South,179,5.0,9.0,87,0.00,,,0.00,Wunderground v.1.15,2013-01-25 03:20:00,
2013-01-24 21:25:00,62.2,58.3,30.23,South,187,5.0,9.0,87,0.00,,,0.00,Wunderground v.1.15,2013-01-25 03:25:00,
2013-01-24 21:30:00,62.1,58.2,30.23,SSW,193,6.0,9.0,87,0.00,,,0.00,Wunderground v.1.15,2013-01-25 03:30:00,
2013-01-24 21:35:00,62.0,58.1,30.23,SSE,168,6.0,9.0,87,0.00,,,0.00,Wunderground v.1.15,2013-01-25 03:35:00,
2013-01-24 21:40:00,62.0,58.1,30.23,SW,220,6.0,9.0,87,0.00,,,0.00,Wunderground v.1.15,2013-01-25 03:40:00,
2013-01-24 21:45:00,61.9,58.0,30.23,South,186,6.0,9.0,87,0.00,,,0.00,Wunderground v.1.15,2013-01-25 03:45:00,
2013-01-24 21:55:00,61.6,58.0,30.23,South,179,5.0,9.0,88,0.00,,,0.00,Wunderground v.1.15,2013-01-25 03:55:00,
2013-01-24 22:00:00,61.4,58.1,30.23,South,177,5.0,5.0,89,0.00,,,0.00,Wunderground v.1.15,2013-01-25 04:00:00,
2013-01-24 22:05:00,61.4,58.1,30.24,South,181,6.0,6.0,89,0.00,,,0.00,Wunderground v.1.15,2013-01-25 04:05:00,
2013-01-24 22:10:00,61.3,58.0,30.24,SSE,156,6.0,6.0,89,0.00,,,0.00,Wunderground v.1.15,2013-01-25 04:10:00,
2013-01-24 22:15:00,61.3,58.0,30.24,South,190,6.0,9.0,89,0.00,,,0.00,Wunderground v.1.15,2013-01-25 04:15:00,
2013-01-24 22:20:00,61.1,57.8,30.24,SSW,198,5.0,5.0,89,0.00,,,0.00,Wunderground v.1.15,2013-01-25 04:20:00,
2013-01-24 22:25:00,61.0,57.7,30.23,South,174,5.0,6.0,89,0.00,,,0.00,Wunderground v.1.15,2013-01-25 04:25:00,
2013-01-24 22:30:00,61.0,57.7,30.23,SSE,158,5.0,5.0,89,0.00,,,0.00,Wunderground v.1.15,2013-01-25 04:30:00,
2013-01-24 22:35:00,60.8,57.8,30.23,SSE,148,5.0,9.0,90,0.00,,,0.00,Wunderground v.1.15,2013-01-25 04:35:00,
2013-01-24 22:40:00,60.7,57.7,30.23,South,179,5.0,9.0,90,0.00,,,0.00,Wunderground v.1.15,2013-01-25 04:40:00,
2013-01-24 22:45:00,60.6,57.7,30.23,South,182,5.0,9.0,90,0.00,,,0.00,Wunderground v.1.15,2013-01-25 04:45:00,
2013-01-24 22:55:00,60.4,57.8,30.23,South,182,5.0,9.0,91,0.00,,,0.00,Wunderground v.1.15,2013-01-25 04:55:00,
2013-01-24 23:00:00,60.3,57.7,30.22,SSE,159,5.0,5.0,91,0.00,,,0.00,Wunderground v.1.15,2013-01-25 05:00:00,
2013-01-24 23:05:00,60.1,57.5,30.22,South,183,4.0,9.0,91,0.00,,,0.00,Wunderground v.1.15,2013-01-25 05:05:00,
2013-01-24 23:10:00,60.1,57.5,30.22,South,169,4.0,9.0,91,0.00,,,0.00,Wunderground v.1.15,2013-01-25 05:10:00,
2013-01-24 23:15:00,60.1,57.5,30.22,SSW,196,5.0,9.0,91,0.00,,,0.00,Wunderground v.1.15,2013-01-25 05:15:00,
2013-01-24 23:20:00,60.2,57.6,30.22,South,171,5.0,9.0,91,0.00,,,0.00,Wunderground v.1.15,2013-01-25 05:20:00,
2013-01-24 23:30:00,60.1,57.5,30.22,South,173,5.0,5.0,91,0.00,,,0.00,Wunderground v.1.15,2013-01-25 05:30:00,
2013-01-24 23:35:00,60.0,57.4,30.22,South,170,4.0,9.0,91,0.00,,,0.00,Wunderground v.1.15,2013-01-25 05:35:00,
2013-01-24 23:40:00,60.1,57.5,30.22,South,188,4.0,9.0,91,0.00,,,0.00,Wunderground v.1.15,2013-01-25 05:40:00,
2013-01-24 23:45:00,60.1,57.5,30.22,South,178,4.0,9.0,91,0.00,,,0.00,Wunderground v.1.15,2013-01-25 05:45:00,
2013-01-24 23:50:00,60.2,57.6,30.22,SSE,155,5.0,9.0,91,0.00,,,0.00,Wunderground v.1.15,2013-01-25 05:50:00,